sensor_id;sensor_type;location;lat;lon;timestamp;P1;durP1;ratioP1;P2;durP2;ratioP2
58360;SDS011;44164;44.954;10.068;2022-11-20T00:03:38;8.90;;;5.65;;
58360;SDS011;44164;44.954;10.068;2022-11-20T00:06:06;7.55;;;5.00;;
58360;SDS011;44164;44.954;10.068;2022-11-20T00:08:33;10.88;;;6.22;;
58360;SDS011;44164;44.954;10.068;2022-11-20T00:11:03;8.07;;;5.00;;
58360;SDS011;44164;44.954;10.068;2022-11-20T00:13:31;7.55;;;5.43;;
58360;SDS011;44164;44.954;10.068;2022-11-20T00:15:58;6.45;;;5.25;;
58360;SDS011;44164;44.954;10.068;2022-11-20T00:18:25;8.00;;;5.77;;
58360;SDS011;44164;44.954;10.068;2022-11-20T00:20:52;8.17;;;5.77;;
58360;SDS011;44164;44.954;10.068;2022-11-20T00:23:19;7.28;;;5.47;;
58360;SDS011;44164;44.954;10.068;2022-11-20T00:25:45;10.45;;;5.22;;
58360;SDS011;44164;44.954;10.068;2022-11-20T00:28:11;7.88;;;5.05;;
58360;SDS011;44164;44.954;10.068;2022-11-20T00:30:37;7.28;;;5.68;;
58360;SDS011;44164;44.954;10.068;2022-11-20T00:33:03;7.65;;;5.50;;
58360;SDS011;44164;44.954;10.068;2022-11-20T00:35:29;8.43;;;5.22;;
58360;SDS011;44164;44.954;10.068;2022-11-20T00:37:56;6.65;;;4.82;;
58360;SDS011;44164;44.954;10.068;2022-11-20T00:40:22;9.60;;;6.10;;
58360;SDS011;44164;44.954;10.068;2022-11-20T00:42:48;6.47;;;4.72;;
58360;SDS011;44164;44.954;10.068;2022-11-20T00:45:14;7.55;;;4.82;;
58360;SDS011;44164;44.954;10.068;2022-11-20T00:47:41;8.57;;;5.50;;
58360;SDS011;44164;44.954;10.068;2022-11-20T00:50:07;8.98;;;5.85;;
58360;SDS011;44164;44.954;10.068;2022-11-20T00:52:33;6.80;;;4.93;;
58360;SDS011;44164;44.954;10.068;2022-11-20T00:54:59;8.40;;;5.60;;
58360;SDS011;44164;44.954;10.068;2022-11-20T00:57:25;7.35;;;5.32;;
58360;SDS011;44164;44.954;10.068;2022-11-20T00:59:51;9.50;;;6.03;;
58360;SDS011;44164;44.954;10.068;2022-11-20T01:02:18;9.10;;;5.20;;
58360;SDS011;44164;44.954;10.068;2022-11-20T01:04:44;7.72;;;5.07;;
58360;SDS011;44164;44.954;10.068;2022-11-20T01:07:10;7.68;;;5.93;;
58360;SDS011;44164;44.954;10.068;2022-11-20T01:09:36;8.60;;;5.93;;
58360;SDS011;44164;44.954;10.068;2022-11-20T01:12:02;8.90;;;6.28;;
58360;SDS011;44164;44.954;10.068;2022-11-20T01:14:28;6.50;;;5.15;;
58360;SDS011;44164;44.954;10.068;2022-11-20T01:16:54;7.95;;;5.35;;
58360;SDS011;44164;44.954;10.068;2022-11-20T01:19:21;8.10;;;5.90;;
58360;SDS011;44164;44.954;10.068;2022-11-20T01:21:49;9.00;;;5.53;;
58360;SDS011;44164;44.954;10.068;2022-11-20T01:24:17;7.72;;;5.60;;
58360;SDS011;44164;44.954;10.068;2022-11-20T01:26:46;8.18;;;5.70;;
58360;SDS011;44164;44.954;10.068;2022-11-20T01:29:18;7.82;;;6.10;;
58360;SDS011;44164;44.954;10.068;2022-11-20T01:31:48;7.88;;;5.40;;
58360;SDS011;44164;44.954;10.068;2022-11-20T01:34:17;7.05;;;5.28;;
58360;SDS011;44164;44.954;10.068;2022-11-20T01:36:44;8.35;;;5.68;;
58360;SDS011;44164;44.954;10.068;2022-11-20T01:39:15;8.50;;;6.20;;
58360;SDS011;44164;44.954;10.068;2022-11-20T01:41:46;9.13;;;5.80;;
58360;SDS011;44164;44.954;10.068;2022-11-20T01:44:43;7.78;;;5.57;;
58360;SDS011;44164;44.954;10.068;2022-11-20T01:47:17;6.53;;;5.20;;
58360;SDS011;44164;44.954;10.068;2022-11-20T01:49:50;8.70;;;5.53;;
58360;SDS011;44164;44.954;10.068;2022-11-20T01:52:23;7.75;;;5.60;;
58360;SDS011;44164;44.954;10.068;2022-11-20T01:54:54;7.97;;;5.95;;
58360;SDS011;44164;44.954;10.068;2022-11-20T01:57:26;7.20;;;5.32;;
58360;SDS011;44164;44.954;10.068;2022-11-20T01:59:54;7.10;;;5.28;;
58360;SDS011;44164;44.954;10.068;2022-11-20T02:02:23;8.80;;;5.90;;
58360;SDS011;44164;44.954;10.068;2022-11-20T02:04:49;7.78;;;5.45;;
58360;SDS011;44164;44.954;10.068;2022-11-20T02:09:43;7.72;;;5.32;;
58360;SDS011;44164;44.954;10.068;2022-11-20T02:12:09;8.00;;;5.43;;
58360;SDS011;44164;44.954;10.068;2022-11-20T02:14:56;9.75;;;5.53;;
58360;SDS011;44164;44.954;10.068;2022-11-20T02:17:23;6.10;;;5.18;;
58360;SDS011;44164;44.954;10.068;2022-11-20T02:19:50;6.70;;;5.07;;
58360;SDS011;44164;44.954;10.068;2022-11-20T02:22:19;6.90;;;5.47;;
58360;SDS011;44164;44.954;10.068;2022-11-20T02:24:58;7.57;;;5.53;;
58360;SDS011;44164;44.954;10.068;2022-11-20T02:27:25;7.55;;;5.40;;
58360;SDS011;44164;44.954;10.068;2022-11-20T02:30:00;7.32;;;5.03;;
58360;SDS011;44164;44.954;10.068;2022-11-20T02:32:32;8.45;;;6.18;;
58360;SDS011;44164;44.954;10.068;2022-11-20T02:37:43;7.22;;;5.07;;
58360;SDS011;44164;44.954;10.068;2022-11-20T02:40:11;7.97;;;5.55;;
58360;SDS011;44164;44.954;10.068;2022-11-20T02:42:37;6.15;;;4.90;;
58360;SDS011;44164;44.954;10.068;2022-11-20T02:45:03;6.50;;;5.00;;
58360;SDS011;44164;44.954;10.068;2022-11-20T02:47:30;6.93;;;5.53;;
58360;SDS011;44164;44.954;10.068;2022-11-20T02:49:57;8.02;;;5.13;;
58360;SDS011;44164;44.954;10.068;2022-11-20T02:52:24;8.52;;;5.68;;
58360;SDS011;44164;44.954;10.068;2022-11-20T02:54:50;7.22;;;5.80;;
58360;SDS011;44164;44.954;10.068;2022-11-20T02:57:17;8.02;;;5.32;;
58360;SDS011;44164;44.954;10.068;2022-11-20T02:59:43;6.95;;;5.20;;
58360;SDS011;44164;44.954;10.068;2022-11-20T03:02:09;6.85;;;4.53;;
58360;SDS011;44164;44.954;10.068;2022-11-20T03:04:35;7.10;;;5.13;;
58360;SDS011;44164;44.954;10.068;2022-11-20T03:07:01;5.80;;;4.97;;
58360;SDS011;44164;44.954;10.068;2022-11-20T03:09:27;8.45;;;5.18;;
58360;SDS011;44164;44.954;10.068;2022-11-20T03:11:53;6.30;;;4.38;;
58360;SDS011;44164;44.954;10.068;2022-11-20T03:14:19;8.13;;;5.00;;
58360;SDS011;44164;44.954;10.068;2022-11-20T03:16:46;6.30;;;4.97;;
58360;SDS011;44164;44.954;10.068;2022-11-20T03:19:12;6.63;;;5.07;;
58360;SDS011;44164;44.954;10.068;2022-11-20T03:21:38;6.80;;;4.88;;
58360;SDS011;44164;44.954;10.068;2022-11-20T03:24:04;6.55;;;4.93;;
58360;SDS011;44164;44.954;10.068;2022-11-20T03:26:31;7.88;;;5.20;;
58360;SDS011;44164;44.954;10.068;2022-11-20T03:28:58;6.22;;;4.93;;
58360;SDS011;44164;44.954;10.068;2022-11-20T03:33:55;6.05;;;4.53;;
58360;SDS011;44164;44.954;10.068;2022-11-20T03:36:22;5.97;;;4.60;;
58360;SDS011;44164;44.954;10.068;2022-11-20T03:38:48;5.97;;;4.75;;
58360;SDS011;44164;44.954;10.068;2022-11-20T03:41:16;6.05;;;4.95;;
58360;SDS011;44164;44.954;10.068;2022-11-20T03:43:50;6.10;;;4.25;;
58360;SDS011;44164;44.954;10.068;2022-11-20T03:46:20;5.75;;;4.55;;
58360;SDS011;44164;44.954;10.068;2022-11-20T03:48:47;6.63;;;5.20;;
58360;SDS011;44164;44.954;10.068;2022-11-20T03:51:14;5.95;;;4.43;;
58360;SDS011;44164;44.954;10.068;2022-11-20T03:53:54;6.35;;;4.15;;
58360;SDS011;44164;44.954;10.068;2022-11-20T03:58:48;5.15;;;3.95;;
58360;SDS011;44164;44.954;10.068;2022-11-20T04:01:16;5.93;;;4.38;;
58360;SDS011;44164;44.954;10.068;2022-11-20T04:03:44;6.40;;;4.32;;
58360;SDS011;44164;44.954;10.068;2022-11-20T04:06:12;6.68;;;4.60;;
58360;SDS011;44164;44.954;10.068;2022-11-20T04:08:49;5.60;;;4.13;;
58360;SDS011;44164;44.954;10.068;2022-11-20T04:11:19;5.00;;;4.15;;
58360;SDS011;44164;44.954;10.068;2022-11-20T04:13:49;5.10;;;3.60;;
58360;SDS011;44164;44.954;10.068;2022-11-20T04:16:16;5.30;;;3.95;;
58360;SDS011;44164;44.954;10.068;2022-11-20T04:18:43;6.28;;;4.43;;
58360;SDS011;44164;44.954;10.068;2022-11-20T04:21:10;6.75;;;4.30;;
58360;SDS011;44164;44.954;10.068;2022-11-20T04:23:36;5.43;;;4.10;;
58360;SDS011;44164;44.954;10.068;2022-11-20T04:26:10;5.05;;;3.97;;
58360;SDS011;44164;44.954;10.068;2022-11-20T04:28:37;6.55;;;4.93;;
58360;SDS011;44164;44.954;10.068;2022-11-20T04:33:34;7.03;;;4.35;;
58360;SDS011;44164;44.954;10.068;2022-11-20T04:36:02;6.35;;;4.75;;
58360;SDS011;44164;44.954;10.068;2022-11-20T04:38:32;5.57;;;3.95;;
58360;SDS011;44164;44.954;10.068;2022-11-20T04:40:59;5.50;;;4.15;;
58360;SDS011;44164;44.954;10.068;2022-11-20T04:43:27;5.45;;;4.25;;
58360;SDS011;44164;44.954;10.068;2022-11-20T04:45:53;4.65;;;4.10;;
58360;SDS011;44164;44.954;10.068;2022-11-20T04:48:20;5.47;;;3.75;;
58360;SDS011;44164;44.954;10.068;2022-11-20T04:50:46;6.13;;;4.07;;
58360;SDS011;44164;44.954;10.068;2022-11-20T04:53:12;5.65;;;4.38;;
58360;SDS011;44164;44.954;10.068;2022-11-20T04:55:38;6.28;;;4.63;;
58360;SDS011;44164;44.954;10.068;2022-11-20T04:58:05;5.38;;;4.32;;
58360;SDS011;44164;44.954;10.068;2022-11-20T05:00:31;5.65;;;4.00;;
58360;SDS011;44164;44.954;10.068;2022-11-20T05:02:57;5.60;;;4.07;;
58360;SDS011;44164;44.954;10.068;2022-11-20T05:05:23;4.28;;;3.47;;
58360;SDS011;44164;44.954;10.068;2022-11-20T05:07:49;5.60;;;4.07;;
58360;SDS011;44164;44.954;10.068;2022-11-20T05:10:15;5.68;;;3.80;;
58360;SDS011;44164;44.954;10.068;2022-11-20T05:12:42;4.38;;;3.50;;
58360;SDS011;44164;44.954;10.068;2022-11-20T05:15:08;5.18;;;3.67;;
58360;SDS011;44164;44.954;10.068;2022-11-20T05:17:34;5.03;;;3.67;;
58360;SDS011;44164;44.954;10.068;2022-11-20T05:20:00;4.28;;;3.33;;
58360;SDS011;44164;44.954;10.068;2022-11-20T05:22:27;5.28;;;4.00;;
58360;SDS011;44164;44.954;10.068;2022-11-20T05:24:53;4.60;;;3.80;;
58360;SDS011;44164;44.954;10.068;2022-11-20T05:27:19;5.20;;;3.88;;
58360;SDS011;44164;44.954;10.068;2022-11-20T05:29:46;4.35;;;3.40;;
58360;SDS011;44164;44.954;10.068;2022-11-20T05:32:12;5.05;;;3.65;;
58360;SDS011;44164;44.954;10.068;2022-11-20T05:34:38;5.07;;;3.33;;
58360;SDS011;44164;44.954;10.068;2022-11-20T05:37:04;5.57;;;3.50;;
58360;SDS011;44164;44.954;10.068;2022-11-20T05:39:30;4.03;;;3.35;;
58360;SDS011;44164;44.954;10.068;2022-11-20T05:41:56;4.75;;;3.25;;
58360;SDS011;44164;44.954;10.068;2022-11-20T05:44:41;4.78;;;3.40;;
58360;SDS011;44164;44.954;10.068;2022-11-20T05:47:07;4.43;;;2.88;;
58360;SDS011;44164;44.954;10.068;2022-11-20T05:49:33;4.57;;;3.30;;
58360;SDS011;44164;44.954;10.068;2022-11-20T05:51:59;4.88;;;3.20;;
58360;SDS011;44164;44.954;10.068;2022-11-20T05:54:25;3.83;;;3.00;;
58360;SDS011;44164;44.954;10.068;2022-11-20T05:56:51;3.92;;;3.08;;
58360;SDS011;44164;44.954;10.068;2022-11-20T05:59:18;4.03;;;3.08;;
58360;SDS011;44164;44.954;10.068;2022-11-20T06:01:44;4.70;;;3.45;;
58360;SDS011;44164;44.954;10.068;2022-11-20T06:04:10;3.95;;;3.05;;
58360;SDS011;44164;44.954;10.068;2022-11-20T06:06:36;5.07;;;3.35;;
58360;SDS011;44164;44.954;10.068;2022-11-20T06:09:02;4.43;;;2.95;;
58360;SDS011;44164;44.954;10.068;2022-11-20T06:11:28;3.95;;;2.92;;
58360;SDS011;44164;44.954;10.068;2022-11-20T06:13:54;3.78;;;3.30;;
58360;SDS011;44164;44.954;10.068;2022-11-20T06:16:20;4.40;;;3.13;;
58360;SDS011;44164;44.954;10.068;2022-11-20T06:18:47;4.45;;;3.47;;
58360;SDS011;44164;44.954;10.068;2022-11-20T06:23:41;4.40;;;3.25;;
58360;SDS011;44164;44.954;10.068;2022-11-20T06:26:08;4.60;;;3.15;;
58360;SDS011;44164;44.954;10.068;2022-11-20T06:28:36;4.45;;;3.50;;
58360;SDS011;44164;44.954;10.068;2022-11-20T06:31:02;4.55;;;3.50;;
58360;SDS011;44164;44.954;10.068;2022-11-20T06:33:29;4.18;;;2.92;;
58360;SDS011;44164;44.954;10.068;2022-11-20T06:35:58;4.50;;;3.20;;
58360;SDS011;44164;44.954;10.068;2022-11-20T06:38:26;4.35;;;3.22;;
58360;SDS011;44164;44.954;10.068;2022-11-20T06:40:52;4.25;;;3.17;;
58360;SDS011;44164;44.954;10.068;2022-11-20T06:43:19;5.05;;;3.00;;
58360;SDS011;44164;44.954;10.068;2022-11-20T06:45:45;3.90;;;3.03;;
58360;SDS011;44164;44.954;10.068;2022-11-20T06:48:11;4.75;;;3.35;;
58360;SDS011;44164;44.954;10.068;2022-11-20T06:50:37;4.22;;;3.45;;
58360;SDS011;44164;44.954;10.068;2022-11-20T06:53:04;5.10;;;3.58;;
58360;SDS011;44164;44.954;10.068;2022-11-20T06:55:31;4.47;;;3.03;;
58360;SDS011;44164;44.954;10.068;2022-11-20T06:57:57;4.70;;;2.90;;
58360;SDS011;44164;44.954;10.068;2022-11-20T07:00:23;3.65;;;2.80;;
58360;SDS011;44164;44.954;10.068;2022-11-20T07:02:50;5.15;;;3.28;;
58360;SDS011;44164;44.954;10.068;2022-11-20T07:05:16;5.60;;;3.78;;
58360;SDS011;44164;44.954;10.068;2022-11-20T07:07:43;5.00;;;3.20;;
58360;SDS011;44164;44.954;10.068;2022-11-20T07:10:09;4.25;;;2.97;;
58360;SDS011;44164;44.954;10.068;2022-11-20T07:12:35;4.90;;;3.35;;
58360;SDS011;44164;44.954;10.068;2022-11-20T07:15:01;4.20;;;3.13;;
58360;SDS011;44164;44.954;10.068;2022-11-20T07:17:28;4.88;;;3.20;;
58360;SDS011;44164;44.954;10.068;2022-11-20T07:19:54;4.20;;;2.95;;
58360;SDS011;44164;44.954;10.068;2022-11-20T07:22:20;4.47;;;3.35;;
58360;SDS011;44164;44.954;10.068;2022-11-20T07:24:47;4.70;;;3.42;;
58360;SDS011;44164;44.954;10.068;2022-11-20T07:27:14;4.18;;;3.00;;
58360;SDS011;44164;44.954;10.068;2022-11-20T07:29:40;4.85;;;3.15;;
58360;SDS011;44164;44.954;10.068;2022-11-20T07:32:06;5.55;;;3.13;;
58360;SDS011;44164;44.954;10.068;2022-11-20T07:34:32;4.15;;;2.78;;
58360;SDS011;44164;44.954;10.068;2022-11-20T07:36:58;3.95;;;2.78;;
58360;SDS011;44164;44.954;10.068;2022-11-20T07:39:24;3.97;;;3.17;;
58360;SDS011;44164;44.954;10.068;2022-11-20T07:41:50;6.10;;;3.42;;
58360;SDS011;44164;44.954;10.068;2022-11-20T07:44:16;4.00;;;3.28;;
58360;SDS011;44164;44.954;10.068;2022-11-20T07:46:42;8.38;;;4.57;;
58360;SDS011;44164;44.954;10.068;2022-11-20T07:49:08;4.07;;;3.45;;
58360;SDS011;44164;44.954;10.068;2022-11-20T07:51:34;5.30;;;4.10;;
58360;SDS011;44164;44.954;10.068;2022-11-20T07:54:00;5.70;;;4.47;;
58360;SDS011;44164;44.954;10.068;2022-11-20T07:56:26;4.93;;;4.05;;
58360;SDS011;44164;44.954;10.068;2022-11-20T07:58:52;6.03;;;4.82;;
58360;SDS011;44164;44.954;10.068;2022-11-20T08:01:18;4.93;;;4.43;;
58360;SDS011;44164;44.954;10.068;2022-11-20T08:03:45;5.60;;;4.95;;
58360;SDS011;44164;44.954;10.068;2022-11-20T08:06:11;6.05;;;4.50;;
58360;SDS011;44164;44.954;10.068;2022-11-20T08:08:37;7.28;;;5.05;;
58360;SDS011;44164;44.954;10.068;2022-11-20T08:11:04;6.88;;;5.47;;
58360;SDS011;44164;44.954;10.068;2022-11-20T08:13:49;6.13;;;4.90;;
58360;SDS011;44164;44.954;10.068;2022-11-20T08:16:34;5.68;;;4.97;;
58360;SDS011;44164;44.954;10.068;2022-11-20T08:19:00;6.75;;;5.20;;
58360;SDS011;44164;44.954;10.068;2022-11-20T08:21:26;6.82;;;5.45;;
58360;SDS011;44164;44.954;10.068;2022-11-20T08:23:52;6.38;;;5.28;;
58360;SDS011;44164;44.954;10.068;2022-11-20T08:26:18;5.95;;;4.88;;
58360;SDS011;44164;44.954;10.068;2022-11-20T08:28:46;6.85;;;5.28;;
58360;SDS011;44164;44.954;10.068;2022-11-20T08:31:12;6.28;;;5.55;;
58360;SDS011;44164;44.954;10.068;2022-11-20T08:33:38;6.80;;;5.50;;
58360;SDS011;44164;44.954;10.068;2022-11-20T08:36:05;6.07;;;4.97;;
58360;SDS011;44164;44.954;10.068;2022-11-20T08:38:32;6.15;;;4.88;;
58360;SDS011;44164;44.954;10.068;2022-11-20T08:41:01;5.43;;;4.65;;
58360;SDS011;44164;44.954;10.068;2022-11-20T08:43:47;6.88;;;5.32;;
58360;SDS011;44164;44.954;10.068;2022-11-20T08:46:16;5.05;;;4.35;;
58360;SDS011;44164;44.954;10.068;2022-11-20T08:48:42;6.05;;;5.25;;
58360;SDS011;44164;44.954;10.068;2022-11-20T08:51:09;6.10;;;4.90;;
58360;SDS011;44164;44.954;10.068;2022-11-20T08:53:35;5.10;;;4.45;;
58360;SDS011;44164;44.954;10.068;2022-11-20T08:56:01;5.90;;;5.03;;
58360;SDS011;44164;44.954;10.068;2022-11-20T08:58:27;5.82;;;4.57;;
58360;SDS011;44164;44.954;10.068;2022-11-20T09:00:53;5.68;;;5.05;;
58360;SDS011;44164;44.954;10.068;2022-11-20T09:03:19;5.05;;;4.47;;
58360;SDS011;44164;44.954;10.068;2022-11-20T09:05:46;6.82;;;4.93;;
58360;SDS011;44164;44.954;10.068;2022-11-20T09:08:12;6.00;;;5.22;;
58360;SDS011;44164;44.954;10.068;2022-11-20T09:10:38;4.70;;;4.13;;
58360;SDS011;44164;44.954;10.068;2022-11-20T09:13:07;5.53;;;4.65;;
58360;SDS011;44164;44.954;10.068;2022-11-20T09:15:33;5.47;;;4.35;;
58360;SDS011;44164;44.954;10.068;2022-11-20T09:18:00;7.55;;;4.28;;
58360;SDS011;44164;44.954;10.068;2022-11-20T09:20:28;5.50;;;4.20;;
58360;SDS011;44164;44.954;10.068;2022-11-20T09:22:55;4.80;;;3.70;;
58360;SDS011;44164;44.954;10.068;2022-11-20T09:25:22;6.93;;;4.47;;
58360;SDS011;44164;44.954;10.068;2022-11-20T09:27:54;6.15;;;4.75;;
58360;SDS011;44164;44.954;10.068;2022-11-20T09:30:24;6.97;;;4.30;;
58360;SDS011;44164;44.954;10.068;2022-11-20T09:32:50;4.95;;;4.22;;
58360;SDS011;44164;44.954;10.068;2022-11-20T09:35:16;4.70;;;3.95;;
58360;SDS011;44164;44.954;10.068;2022-11-20T09:37:43;5.53;;;3.90;;
58360;SDS011;44164;44.954;10.068;2022-11-20T09:40:20;6.35;;;4.35;;
58360;SDS011;44164;44.954;10.068;2022-11-20T09:50:56;4.90;;;3.80;;
58360;SDS011;44164;44.954;10.068;2022-11-20T09:56:14;4.72;;;4.10;;
58360;SDS011;44164;44.954;10.068;2022-11-20T09:58:41;5.75;;;4.50;;
58360;SDS011;44164;44.954;10.068;2022-11-20T10:06:33;5.05;;;3.95;;
58360;SDS011;44164;44.954;10.068;2022-11-20T10:29:00;5.15;;;4.03;;
58360;SDS011;44164;44.954;10.068;2022-11-20T10:31:45;5.50;;;4.38;;
58360;SDS011;44164;44.954;10.068;2022-11-20T10:34:19;4.40;;;3.67;;
58360;SDS011;44164;44.954;10.068;2022-11-20T10:36:49;4.65;;;4.05;;
58360;SDS011;44164;44.954;10.068;2022-11-20T10:39:33;5.15;;;3.88;;
58360;SDS011;44164;44.954;10.068;2022-11-20T10:42:02;4.35;;;3.47;;
58360;SDS011;44164;44.954;10.068;2022-11-20T10:44:34;4.57;;;3.25;;
58360;SDS011;44164;44.954;10.068;2022-11-20T10:47:20;5.85;;;3.95;;
58360;SDS011;44164;44.954;10.068;2022-11-20T10:49:53;4.65;;;4.00;;
58360;SDS011;44164;44.954;10.068;2022-11-20T10:52:25;5.95;;;4.35;;
58360;SDS011;44164;44.954;10.068;2022-11-20T10:55:28;4.93;;;3.95;;
58360;SDS011;44164;44.954;10.068;2022-11-20T11:00:32;5.95;;;4.00;;
58360;SDS011;44164;44.954;10.068;2022-11-20T11:02:59;5.00;;;3.50;;
58360;SDS011;44164;44.954;10.068;2022-11-20T11:05:39;5.90;;;3.78;;
58360;SDS011;44164;44.954;10.068;2022-11-20T11:08:15;6.32;;;3.75;;
58360;SDS011;44164;44.954;10.068;2022-11-20T11:13:24;6.30;;;3.83;;
58360;SDS011;44164;44.954;10.068;2022-11-20T11:15:51;5.65;;;4.03;;
58360;SDS011;44164;44.954;10.068;2022-11-20T11:18:28;6.95;;;4.07;;
58360;SDS011;44164;44.954;10.068;2022-11-20T11:20:58;4.68;;;3.88;;
58360;SDS011;44164;44.954;10.068;2022-11-20T11:23:30;5.13;;;4.07;;
58360;SDS011;44164;44.954;10.068;2022-11-20T11:25:57;4.53;;;3.50;;
58360;SDS011;44164;44.954;10.068;2022-11-20T11:28:25;5.43;;;3.65;;
58360;SDS011;44164;44.954;10.068;2022-11-20T11:30:53;6.03;;;3.83;;
58360;SDS011;44164;44.954;10.068;2022-11-20T11:33:21;6.30;;;3.92;;
58360;SDS011;44164;44.954;10.068;2022-11-20T11:35:49;4.57;;;3.85;;
58360;SDS011;44164;44.954;10.068;2022-11-20T11:38:21;4.93;;;3.35;;
58360;SDS011;44164;44.954;10.068;2022-11-20T11:40:54;4.65;;;3.70;;
58360;SDS011;44164;44.954;10.068;2022-11-20T11:43:26;5.78;;;3.42;;
58360;SDS011;44164;44.954;10.068;2022-11-20T11:46:35;6.28;;;3.33;;
58360;SDS011;44164;44.954;10.068;2022-11-20T11:49:01;6.57;;;3.67;;
58360;SDS011;44164;44.954;10.068;2022-11-20T11:51:38;6.38;;;4.05;;
58360;SDS011;44164;44.954;10.068;2022-11-20T11:54:14;6.88;;;4.13;;
58360;SDS011;44164;44.954;10.068;2022-11-20T11:56:43;5.95;;;4.13;;
58360;SDS011;44164;44.954;10.068;2022-11-20T11:59:11;7.22;;;3.60;;
58360;SDS011;44164;44.954;10.068;2022-11-20T12:01:48;7.43;;;3.10;;
58360;SDS011;44164;44.954;10.068;2022-11-20T12:06:45;6.20;;;3.60;;
58360;SDS011;44164;44.954;10.068;2022-11-20T12:09:16;6.65;;;3.85;;
58360;SDS011;44164;44.954;10.068;2022-11-20T12:11:55;4.88;;;3.55;;
58360;SDS011;44164;44.954;10.068;2022-11-20T12:17:03;6.55;;;3.30;;
58360;SDS011;44164;44.954;10.068;2022-11-20T12:19:30;6.22;;;3.80;;
58360;SDS011;44164;44.954;10.068;2022-11-20T12:35:47;10.48;;;3.55;;
58360;SDS011;44164;44.954;10.068;2022-11-20T12:47:42;7.93;;;3.38;;
58360;SDS011;44164;44.954;10.068;2022-11-20T13:01:53;8.32;;;3.95;;
58360;SDS011;44164;44.954;10.068;2022-11-20T13:07:10;6.47;;;3.15;;
58360;SDS011;44164;44.954;10.068;2022-11-20T13:09:48;4.68;;;3.25;;
58360;SDS011;44164;44.954;10.068;2022-11-20T13:17:50;5.15;;;3.63;;
58360;SDS011;44164;44.954;10.068;2022-11-20T13:22:51;5.22;;;3.38;;
58360;SDS011;44164;44.954;10.068;2022-11-20T13:28:00;5.28;;;3.47;;
58360;SDS011;44164;44.954;10.068;2022-11-20T13:30:50;5.88;;;3.65;;
58360;SDS011;44164;44.954;10.068;2022-11-20T13:36:04;4.88;;;3.38;;
58360;SDS011;44164;44.954;10.068;2022-11-20T13:38:46;5.85;;;3.72;;
58360;SDS011;44164;44.954;10.068;2022-11-20T13:41:23;4.82;;;3.30;;
58360;SDS011;44164;44.954;10.068;2022-11-20T13:43:58;6.20;;;3.42;;
58360;SDS011;44164;44.954;10.068;2022-11-20T13:46:36;5.40;;;3.28;;
58360;SDS011;44164;44.954;10.068;2022-11-20T13:49:18;5.95;;;3.05;;
58360;SDS011;44164;44.954;10.068;2022-11-20T13:51:55;4.88;;;3.05;;
58360;SDS011;44164;44.954;10.068;2022-11-20T14:00:08;5.13;;;3.20;;
58360;SDS011;44164;44.954;10.068;2022-11-20T14:02:37;5.55;;;2.72;;
58360;SDS011;44164;44.954;10.068;2022-11-20T14:05:03;7.43;;;3.10;;
58360;SDS011;44164;44.954;10.068;2022-11-20T14:07:41;5.28;;;3.35;;
58360;SDS011;44164;44.954;10.068;2022-11-20T14:12:53;6.15;;;3.10;;
58360;SDS011;44164;44.954;10.068;2022-11-20T14:15:26;13.70;;;3.83;;
58360;SDS011;44164;44.954;10.068;2022-11-20T14:17:55;12.43;;;3.30;;
58360;SDS011;44164;44.954;10.068;2022-11-20T14:20:22;12.32;;;3.75;;
58360;SDS011;44164;44.954;10.068;2022-11-20T14:22:51;7.22;;;3.42;;
58360;SDS011;44164;44.954;10.068;2022-11-20T14:25:19;7.50;;;3.63;;
58360;SDS011;44164;44.954;10.068;2022-11-20T14:28:10;5.80;;;3.30;;
58360;SDS011;44164;44.954;10.068;2022-11-20T14:30:39;6.53;;;3.45;;
58360;SDS011;44164;44.954;10.068;2022-11-20T14:33:10;10.13;;;3.50;;
58360;SDS011;44164;44.954;10.068;2022-11-20T14:35:38;6.28;;;3.22;;
58360;SDS011;44164;44.954;10.068;2022-11-20T14:38:11;8.45;;;3.67;;
58360;SDS011;44164;44.954;10.068;2022-11-20T14:40:39;6.75;;;3.22;;
58360;SDS011;44164;44.954;10.068;2022-11-20T14:45:45;5.93;;;3.10;;
58360;SDS011;44164;44.954;10.068;2022-11-20T14:48:12;5.40;;;3.65;;
58360;SDS011;44164;44.954;10.068;2022-11-20T14:50:38;4.50;;;2.58;;
58360;SDS011;44164;44.954;10.068;2022-11-20T14:53:05;6.75;;;3.47;;
58360;SDS011;44164;44.954;10.068;2022-11-20T14:55:35;6.50;;;3.00;;
58360;SDS011;44164;44.954;10.068;2022-11-20T14:58:05;5.80;;;3.28;;
58360;SDS011;44164;44.954;10.068;2022-11-20T15:00:33;13.82;;;3.85;;
58360;SDS011;44164;44.954;10.068;2022-11-20T15:03:00;5.07;;;3.15;;
58360;SDS011;44164;44.954;10.068;2022-11-20T15:05:43;5.15;;;3.38;;
58360;SDS011;44164;44.954;10.068;2022-11-20T15:08:14;5.38;;;3.15;;
58360;SDS011;44164;44.954;10.068;2022-11-20T15:10:47;7.47;;;3.47;;
58360;SDS011;44164;44.954;10.068;2022-11-20T15:13:20;4.88;;;3.17;;
58360;SDS011;44164;44.954;10.068;2022-11-20T15:15:50;5.82;;;3.13;;
58360;SDS011;44164;44.954;10.068;2022-11-20T15:18:19;5.53;;;2.83;;
58360;SDS011;44164;44.954;10.068;2022-11-20T15:20:48;5.72;;;3.10;;
58360;SDS011;44164;44.954;10.068;2022-11-20T15:23:15;5.60;;;3.30;;
58360;SDS011;44164;44.954;10.068;2022-11-20T15:25:44;4.20;;;3.00;;
58360;SDS011;44164;44.954;10.068;2022-11-20T15:28:18;4.72;;;3.10;;
58360;SDS011;44164;44.954;10.068;2022-11-20T15:30:45;4.13;;;3.35;;
58360;SDS011;44164;44.954;10.068;2022-11-20T15:33:12;5.72;;;2.95;;
58360;SDS011;44164;44.954;10.068;2022-11-20T15:35:39;7.32;;;3.53;;
58360;SDS011;44164;44.954;10.068;2022-11-20T15:38:05;7.05;;;3.42;;
58360;SDS011;44164;44.954;10.068;2022-11-20T15:40:31;4.75;;;3.00;;
58360;SDS011;44164;44.954;10.068;2022-11-20T15:42:58;4.10;;;2.92;;
58360;SDS011;44164;44.954;10.068;2022-11-20T15:46:06;13.43;;;3.10;;
58360;SDS011;44164;44.954;10.068;2022-11-20T15:48:51;8.40;;;3.47;;
58360;SDS011;44164;44.954;10.068;2022-11-20T15:53:56;9.93;;;2.92;;
58360;SDS011;44164;44.954;10.068;2022-11-20T15:56:23;5.03;;;3.55;;
58360;SDS011;44164;44.954;10.068;2022-11-20T15:58:49;6.35;;;3.80;;
58360;SDS011;44164;44.954;10.068;2022-11-20T16:01:17;8.77;;;3.40;;
58360;SDS011;44164;44.954;10.068;2022-11-20T16:03:44;8.38;;;3.03;;
58360;SDS011;44164;44.954;10.068;2022-11-20T16:06:11;5.30;;;3.28;;
58360;SDS011;44164;44.954;10.068;2022-11-20T16:08:37;6.03;;;3.45;;
58360;SDS011;44164;44.954;10.068;2022-11-20T16:11:03;5.78;;;3.53;;
58360;SDS011;44164;44.954;10.068;2022-11-20T16:13:30;5.38;;;3.10;;
58360;SDS011;44164;44.954;10.068;2022-11-20T16:16:35;7.60;;;4.00;;
58360;SDS011;44164;44.954;10.068;2022-11-20T16:19:02;5.88;;;3.47;;
58360;SDS011;44164;44.954;10.068;2022-11-20T16:21:29;7.15;;;3.38;;
58360;SDS011;44164;44.954;10.068;2022-11-20T16:23:58;5.95;;;3.95;;
58360;SDS011;44164;44.954;10.068;2022-11-20T16:26:25;6.57;;;3.50;;
58360;SDS011;44164;44.954;10.068;2022-11-20T16:28:51;6.78;;;3.58;;
58360;SDS011;44164;44.954;10.068;2022-11-20T16:31:18;13.05;;;3.63;;
58360;SDS011;44164;44.954;10.068;2022-11-20T16:33:51;6.05;;;3.50;;
58360;SDS011;44164;44.954;10.068;2022-11-20T16:36:19;7.18;;;3.67;;
58360;SDS011;44164;44.954;10.068;2022-11-20T16:38:46;4.70;;;3.23;;
58360;SDS011;44164;44.954;10.068;2022-11-20T16:41:12;7.10;;;3.40;;
58360;SDS011;44164;44.954;10.068;2022-11-20T16:43:45;9.25;;;3.15;;
58360;SDS011;44164;44.954;10.068;2022-11-20T16:46:17;6.60;;;3.63;;
58360;SDS011;44164;44.954;10.068;2022-11-20T16:48:44;5.10;;;3.53;;
58360;SDS011;44164;44.954;10.068;2022-11-20T16:51:11;6.50;;;4.15;;
58360;SDS011;44164;44.954;10.068;2022-11-20T16:53:38;5.07;;;3.55;;